createdAt,value
2023-05-17T00:00:26.165Z,2.28
2023-05-17T00:02:52.829Z,2.33
2023-05-17T00:05:19.510Z,2.80
2023-05-17T00:07:47.335Z,2.78
2023-05-17T00:10:14.148Z,2.42
2023-05-17T00:12:40.756Z,2.42
2023-05-17T00:15:07.660Z,2.90
2023-05-17T00:17:34.419Z,2.60
2023-05-17T00:20:01.241Z,2.70
2023-05-17T00:22:27.899Z,2.60
2023-05-17T00:24:54.524Z,2.30
2023-05-17T00:27:21.120Z,2.75
2023-05-17T00:29:47.722Z,2.25
2023-05-17T00:32:14.353Z,2.65
2023-05-17T00:34:40.967Z,3.33
2023-05-17T00:37:08.132Z,2.92
2023-05-17T00:39:34.715Z,2.67
2023-05-17T00:42:01.516Z,2.88
2023-05-17T00:44:28.108Z,2.58
2023-05-17T00:46:54.724Z,3.00
2023-05-17T00:49:21.329Z,2.85
2023-05-17T00:51:48.348Z,3.70
2023-05-17T00:54:15.000Z,2.40
2023-05-17T00:56:41.695Z,3.03
2023-05-17T00:59:08.963Z,3.28
2023-05-17T01:01:35.903Z,2.97
2023-05-17T01:04:02.849Z,3.60
2023-05-17T01:06:29.495Z,3.85
2023-05-17T01:08:56.196Z,4.38
2023-05-17T01:11:41.392Z,3.47
2023-05-17T01:14:38.266Z,4.47
2023-05-17T01:17:13.348Z,4.25
2023-05-17T01:20:14.260Z,3.38
2023-05-17T01:23:04.634Z,3.42
2023-05-17T01:25:56.062Z,4.03
2023-05-17T01:28:23.652Z,3.15
2023-05-17T01:30:51.562Z,4.13
2023-05-17T01:33:19.631Z,3.17
2023-05-17T01:35:46.381Z,4.70
2023-05-17T01:38:13.144Z,3.90
2023-05-17T01:40:47.128Z,3.40
2023-05-17T01:43:23.578Z,4.22
2023-05-17T01:46:29.755Z,4.22
2023-05-17T01:49:06.378Z,4.15
2023-05-17T01:51:34.811Z,3.80
2023-05-17T01:56:37.205Z,3.70
2023-05-17T01:59:06.107Z,3.75
2023-05-17T02:01:34.010Z,3.80
2023-05-17T02:04:00.873Z,4.72
2023-05-17T02:06:27.502Z,3.63
2023-05-17T02:08:54.125Z,4.20
2023-05-17T02:11:20.871Z,3.90
2023-05-17T02:13:47.437Z,3.70
2023-05-17T02:16:14.032Z,4.28
2023-05-17T02:18:41.341Z,4.18
2023-05-17T02:21:08.017Z,3.95
2023-05-17T02:23:34.629Z,3.08
2023-05-17T02:26:01.292Z,3.95
2023-05-17T02:28:27.918Z,4.28
2023-05-17T02:30:54.721Z,4.18
2023-05-17T02:33:21.400Z,4.00
2023-05-17T02:35:50.042Z,4.25
2023-05-17T02:40:45.899Z,3.60
2023-05-17T02:43:12.505Z,3.55
2023-05-17T02:45:39.089Z,4.18
2023-05-17T02:48:06.041Z,4.35
2023-05-17T02:50:32.633Z,3.55
2023-05-17T02:52:59.294Z,4.22
2023-05-17T02:55:26.069Z,4.07
2023-05-17T02:57:52.804Z,4.32
2023-05-17T03:00:19.597Z,3.35
2023-05-17T03:02:46.281Z,3.83
2023-05-17T03:05:13.078Z,4.40
2023-05-17T03:07:39.700Z,3.80
2023-05-17T03:10:07.458Z,3.70
2023-05-17T03:12:34.055Z,4.30
2023-05-17T03:15:00.728Z,4.25
2023-05-17T03:17:27.435Z,3.88
2023-05-17T03:19:54.337Z,4.13
2023-05-17T03:22:20.981Z,4.20
2023-05-17T03:24:47.558Z,3.90
2023-05-17T03:27:14.159Z,4.55
2023-05-17T03:29:40.772Z,4.53
2023-05-17T03:32:07.615Z,4.03
2023-05-17T03:34:34.223Z,4.80
2023-05-17T03:37:01.382Z,3.67
2023-05-17T03:39:27.950Z,4.90
2023-05-17T03:41:55.141Z,4.47
2023-05-17T03:44:21.752Z,4.35
2023-05-17T03:46:48.473Z,4.18
2023-05-17T03:49:15.090Z,4.95
2023-05-17T03:51:41.925Z,4.18
2023-05-17T03:54:08.504Z,3.90
2023-05-17T03:56:35.122Z,3.58
2023-05-17T03:59:01.756Z,3.67
2023-05-17T04:01:28.375Z,3.22
2023-05-17T04:03:55.064Z,3.92
2023-05-17T04:06:21.790Z,3.53
2023-05-17T04:08:48.401Z,3.53
2023-05-17T04:11:15.008Z,3.90
2023-05-17T04:13:41.895Z,3.40
2023-05-17T04:16:09.295Z,4.15
2023-05-17T04:18:36.674Z,3.78
2023-05-17T04:21:03.870Z,4.07
2023-05-17T04:23:31.729Z,4.30
2023-05-17T04:25:58.537Z,4.13
2023-05-17T04:28:26.221Z,3.72
2023-05-17T04:30:53.047Z,4.25
2023-05-17T04:33:20.111Z,4.00
2023-05-17T04:35:46.983Z,3.63
2023-05-17T04:38:13.590Z,5.20
2023-05-17T04:40:40.811Z,4.03
2023-05-17T04:43:07.453Z,4.28
2023-05-17T04:45:34.147Z,3.50
2023-05-17T04:48:01.656Z,4.22
2023-05-17T04:50:28.292Z,3.40
2023-05-17T04:52:54.902Z,3.40
2023-05-17T04:55:21.832Z,3.63
2023-05-17T04:57:48.430Z,3.25
2023-05-17T05:00:17.120Z,3.45
2023-05-17T05:02:43.777Z,3.45
2023-05-17T05:05:10.956Z,2.80
2023-05-17T05:07:39.784Z,3.40
2023-05-17T05:10:07.021Z,3.08
2023-05-17T05:12:33.637Z,2.42
2023-05-17T05:15:01.186Z,3.50
2023-05-17T05:17:30.924Z,3.85
2023-05-17T05:19:57.787Z,3.25
2023-05-17T05:22:24.857Z,2.97
2023-05-17T05:24:51.953Z,2.58
2023-05-17T05:27:18.510Z,3.58
2023-05-17T05:29:46.146Z,3.35
2023-05-17T05:32:12.854Z,3.40
2023-05-17T05:34:40.364Z,2.70
2023-05-17T05:37:06.958Z,2.40
2023-05-17T05:39:33.969Z,2.65
2023-05-17T05:42:00.602Z,3.38
2023-05-17T05:44:27.290Z,3.28
2023-05-17T05:46:54.010Z,3.53
2023-05-17T05:49:20.959Z,3.15
2023-05-17T05:51:47.590Z,2.72
2023-05-17T05:54:14.474Z,2.90
2023-05-17T05:56:41.228Z,3.20
2023-05-17T05:59:07.874Z,2.85
2023-05-17T06:01:34.866Z,2.55
2023-05-17T06:04:01.504Z,2.95
2023-05-17T06:06:28.174Z,2.45
2023-05-17T06:08:55.184Z,2.30
2023-05-17T06:11:24.112Z,2.47
2023-05-17T06:13:50.739Z,2.45
2023-05-17T06:16:17.360Z,2.33
2023-05-17T06:18:44.234Z,2.15
2023-05-17T06:21:13.418Z,1.85
2023-05-17T06:23:40.109Z,2.35
2023-05-17T06:26:10.500Z,1.60
2023-05-17T06:28:37.854Z,1.65
2023-05-17T06:31:04.730Z,1.80
2023-05-17T06:33:31.365Z,2.15
2023-05-17T06:35:58.700Z,1.88
2023-05-17T06:38:26.284Z,2.13
2023-05-17T06:40:57.530Z,2.22
2023-05-17T06:43:24.446Z,1.88
2023-05-17T06:45:51.211Z,2.72
2023-05-17T06:48:17.916Z,2.13
2023-05-17T06:50:44.620Z,1.85
2023-05-17T06:53:11.305Z,2.13
2023-05-17T06:55:38.066Z,2.03
2023-05-17T06:58:04.754Z,1.65
2023-05-17T07:00:31.884Z,1.67
2023-05-17T07:02:59.152Z,1.55
2023-05-17T07:05:28.249Z,1.52
2023-05-17T07:07:55.192Z,1.70
2023-05-17T07:10:22.163Z,1.65
2023-05-17T07:12:48.774Z,1.77
2023-05-17T07:15:15.773Z,1.23
2023-05-17T07:17:42.386Z,1.73
2023-05-17T07:20:09.691Z,1.30
2023-05-17T07:22:37.587Z,1.40
2023-05-17T07:25:05.241Z,2.10
2023-05-17T07:27:31.847Z,1.20
2023-05-17T07:29:58.512Z,1.25
2023-05-17T07:32:25.217Z,1.15
2023-05-17T07:34:51.860Z,1.65
2023-05-17T07:37:18.472Z,1.65
2023-05-17T07:39:45.073Z,1.77
2023-05-17T07:42:11.649Z,1.55
2023-05-17T07:44:38.230Z,1.58
2023-05-17T07:47:06.195Z,1.42
2023-05-17T07:49:32.930Z,1.88
2023-05-17T07:51:59.544Z,1.33
2023-05-17T07:54:29.674Z,1.58
2023-05-17T07:56:56.446Z,1.38
2023-05-17T07:59:23.472Z,1.27
2023-05-17T08:01:51.034Z,1.92
2023-05-17T08:04:19.277Z,1.63
2023-05-17T08:06:46.962Z,1.48
2023-05-17T08:09:13.693Z,1.80
2023-05-17T08:11:45.888Z,1.95
2023-05-17T08:14:14.282Z,1.40
2023-05-17T08:16:45.396Z,1.83
2023-05-17T08:19:13.405Z,1.48
2023-05-17T08:21:41.934Z,1.30
2023-05-17T08:24:08.974Z,1.20
2023-05-17T08:26:35.936Z,1.75
2023-05-17T08:29:03.162Z,1.70
2023-05-17T08:31:30.025Z,1.38
2023-05-17T08:33:56.787Z,1.45
2023-05-17T08:36:23.497Z,1.40
2023-05-17T08:38:51.535Z,1.80
2023-05-17T08:41:18.641Z,1.55
2023-05-17T08:43:46.598Z,1.40
2023-05-17T08:46:14.648Z,2.47
2023-05-17T08:48:43.266Z,2.20
2023-05-17T08:51:12.406Z,1.58
2023-05-17T08:53:39.528Z,1.70
2023-05-17T08:56:07.303Z,1.70
2023-05-17T08:58:48.121Z,1.67
2023-05-17T09:01:25.117Z,1.48
2023-05-17T09:03:53.454Z,4.80
2023-05-17T09:06:21.879Z,1.95
2023-05-17T09:08:55.226Z,1.63
2023-05-17T09:11:40.974Z,2.47
2023-05-17T09:14:08.198Z,1.65
2023-05-17T09:16:37.607Z,1.73
2023-05-17T09:19:06.367Z,1.88
2023-05-17T09:21:34.549Z,1.50
2023-05-17T09:26:44.973Z,2.10
2023-05-17T09:29:16.341Z,1.52
2023-05-17T09:31:44.218Z,2.25
2023-05-17T09:34:11.477Z,1.92
2023-05-17T09:36:39.400Z,1.80
2023-05-17T09:39:08.162Z,1.55
2023-05-17T09:41:48.025Z,2.08
2023-05-17T09:44:15.886Z,1.88
2023-05-17T09:46:46.311Z,1.88
2023-05-17T09:49:13.851Z,1.55
2023-05-17T09:51:45.196Z,2.05
2023-05-17T09:54:12.324Z,1.98
2023-05-17T09:56:39.484Z,2.15
2023-05-17T09:59:16.563Z,2.15
2023-05-17T10:01:47.644Z,1.75
2023-05-17T10:04:14.859Z,1.83
2023-05-17T10:09:15.845Z,1.90
2023-05-17T10:11:46.485Z,1.77
2023-05-17T10:14:23.871Z,1.90
2023-05-17T10:16:51.834Z,1.88
2023-05-17T10:19:20.256Z,2.20
2023-05-17T10:24:23.444Z,2.08
2023-05-17T10:26:51.142Z,2.08
2023-05-17T10:29:21.213Z,2.00
2023-05-17T10:31:51.368Z,1.80
2023-05-17T10:34:21.292Z,1.98
2023-05-17T10:36:49.969Z,2.13
2023-05-17T10:39:16.783Z,2.15
2023-05-17T10:41:45.888Z,2.38
2023-05-17T10:44:14.032Z,1.60
2023-05-17T10:46:40.717Z,2.67
2023-05-17T10:49:07.438Z,1.92
2023-05-17T10:51:36.532Z,1.80
2023-05-17T10:54:11.785Z,1.80
2023-05-17T10:56:43.070Z,1.92
2023-05-17T10:59:28.215Z,2.10
2023-05-17T11:02:08.002Z,1.90
2023-05-17T11:04:37.805Z,1.73
2023-05-17T11:07:17.853Z,1.75
2023-05-17T11:09:45.504Z,1.83
2023-05-17T11:12:13.369Z,1.60
2023-05-17T11:14:46.095Z,1.90
2023-05-17T11:17:14.920Z,1.80
2023-05-17T11:20:05.944Z,2.03
2023-05-17T11:22:43.381Z,1.58
2023-05-17T11:25:14.391Z,1.85
2023-05-17T11:27:51.934Z,1.83
2023-05-17T11:30:21.936Z,2.00
2023-05-17T11:32:53.496Z,1.98
2023-05-17T11:35:26.557Z,2.05
2023-05-17T11:37:54.647Z,2.10
2023-05-17T11:40:27.137Z,2.13
2023-05-17T11:43:19.495Z,1.85
2023-05-17T11:45:50.655Z,1.55
2023-05-17T11:48:21.771Z,1.75
2023-05-17T11:50:50.078Z,1.65
2023-05-17T11:53:17.570Z,1.50
2023-05-17T11:55:48.844Z,2.03
2023-05-17T11:58:17.067Z,1.55
2023-05-17T12:00:44.108Z,2.03
2023-05-17T12:03:17.924Z,1.70
2023-05-17T12:05:46.114Z,1.52
2023-05-17T12:08:12.986Z,1.95
2023-05-17T12:10:45.549Z,1.58
2023-05-17T12:13:12.424Z,1.73
2023-05-17T12:15:39.413Z,2.47
2023-05-17T12:18:06.065Z,1.45
2023-05-17T12:20:33.403Z,1.20
2023-05-17T12:23:00.153Z,1.48
2023-05-17T12:25:28.074Z,1.85
2023-05-17T12:28:12.590Z,1.85
2023-05-17T12:30:39.364Z,1.65
2023-05-17T12:33:06.712Z,1.73
2023-05-17T12:35:33.583Z,1.75
2023-05-17T12:38:00.514Z,1.67
2023-05-17T12:40:28.267Z,1.58
2023-05-17T12:43:04.629Z,2.42
2023-05-17T12:45:32.021Z,2.03
2023-05-17T12:48:00.622Z,1.85
2023-05-17T12:50:30.982Z,1.60
2023-05-17T12:52:57.813Z,2.25
2023-05-17T12:55:25.306Z,1.88
2023-05-17T12:57:53.689Z,1.40
2023-05-17T13:00:21.638Z,1.80
2023-05-17T13:02:48.448Z,1.60
2023-05-17T13:05:21.604Z,2.03
2023-05-17T13:07:48.398Z,1.65
2023-05-17T13:10:29.000Z,1.50
2023-05-17T13:12:59.867Z,1.65
2023-05-17T13:15:28.951Z,1.80
2023-05-17T13:17:56.073Z,1.60
2023-05-17T13:20:23.007Z,3.03
2023-05-17T13:22:49.963Z,1.95
2023-05-17T13:25:16.685Z,1.50
2023-05-17T13:27:48.649Z,2.20
2023-05-17T13:30:16.625Z,1.80
2023-05-17T13:32:44.401Z,2.65
2023-05-17T13:35:11.424Z,1.73
2023-05-17T13:37:38.063Z,1.70
2023-05-17T13:40:05.133Z,1.63
2023-05-17T13:42:32.190Z,1.80
2023-05-17T13:44:59.060Z,1.63
2023-05-17T13:47:26.161Z,1.77
2023-05-17T13:49:52.876Z,1.88
2023-05-17T13:52:19.709Z,1.50
2023-05-17T13:54:46.452Z,1.73
2023-05-17T13:57:13.306Z,1.52
2023-05-17T13:59:40.028Z,2.13
2023-05-17T14:02:07.848Z,1.52
2023-05-17T14:04:35.076Z,2.28
2023-05-17T14:07:03.456Z,1.90
2023-05-17T14:09:34.612Z,2.28
2023-05-17T14:12:01.781Z,1.80
2023-05-17T14:14:28.955Z,1.90
2023-05-17T14:16:55.574Z,1.60
2023-05-17T14:19:22.362Z,1.60
2023-05-17T14:21:50.250Z,1.30
2023-05-17T14:24:16.948Z,1.42
2023-05-17T14:26:44.237Z,1.35
2023-05-17T14:29:10.895Z,1.23
2023-05-17T14:31:37.557Z,1.85
2023-05-17T14:34:04.306Z,1.73
2023-05-17T14:36:31.925Z,1.48
2023-05-17T14:38:59.369Z,1.70
2023-05-17T14:41:26.405Z,1.92
2023-05-17T14:43:53.025Z,2.03
2023-05-17T14:46:19.777Z,2.03
2023-05-17T14:48:46.371Z,1.40
2023-05-17T14:51:13.562Z,1.63
2023-05-17T14:53:40.251Z,1.63
2023-05-17T14:56:07.712Z,1.95
2023-05-17T14:58:34.381Z,2.28
2023-05-17T15:01:07.012Z,2.22
2023-05-17T15:03:34.566Z,1.50
2023-05-17T15:06:03.550Z,1.35
2023-05-17T15:08:33.162Z,1.25
2023-05-17T15:10:59.829Z,1.25
2023-05-17T15:13:26.721Z,1.75
2023-05-17T15:15:53.919Z,1.95
2023-05-17T15:18:20.661Z,1.65
2023-05-17T15:20:47.293Z,1.63
2023-05-17T15:23:13.977Z,1.88
2023-05-17T15:25:41.109Z,1.42
2023-05-17T15:28:07.768Z,1.13
2023-05-17T15:30:34.410Z,1.90
2023-05-17T15:33:01.385Z,1.63
2023-05-17T15:35:28.968Z,1.38
2023-05-17T15:37:57.979Z,1.60
2023-05-17T15:40:25.047Z,1.98
2023-05-17T15:42:54.433Z,1.50
2023-05-17T15:45:21.486Z,1.95
2023-05-17T15:47:49.420Z,1.75
2023-05-17T15:50:16.420Z,1.40
2023-05-17T15:52:43.230Z,1.98
2023-05-17T15:55:10.419Z,1.52
2023-05-17T15:57:37.035Z,1.88
2023-05-17T16:00:04.758Z,1.80
2023-05-17T16:02:31.369Z,1.70
2023-05-17T16:04:58.340Z,1.60
2023-05-17T16:07:26.591Z,1.70
2023-05-17T16:09:53.378Z,1.30
2023-05-17T16:12:19.979Z,1.67
2023-05-17T16:14:46.978Z,1.42
2023-05-17T16:17:13.650Z,2.15
2023-05-17T16:19:40.372Z,2.20
2023-05-17T16:22:07.046Z,1.80
2023-05-17T16:24:34.088Z,2.67
2023-05-17T16:27:00.886Z,1.92
2023-05-17T16:29:27.489Z,2.05
2023-05-17T16:31:54.246Z,1.92
2023-05-17T16:34:21.007Z,1.58
2023-05-17T16:36:48.316Z,1.65
2023-05-17T16:39:14.964Z,1.70
2023-05-17T16:41:41.672Z,1.48
2023-05-17T16:44:08.365Z,2.00
2023-05-17T16:46:35.014Z,1.60
2023-05-17T16:49:01.694Z,1.88
2023-05-17T16:51:28.434Z,1.48
2023-05-17T16:53:55.033Z,2.10
2023-05-17T16:56:22.336Z,2.40
2023-05-17T16:58:49.001Z,1.70
2023-05-17T17:01:16.023Z,1.48
2023-05-17T17:03:42.748Z,1.48
2023-05-17T17:06:09.568Z,1.70
2023-05-17T17:08:36.388Z,1.38
2023-05-17T17:11:03.067Z,1.65
2023-05-17T17:13:29.694Z,1.98
2023-05-17T17:15:56.304Z,2.00
2023-05-17T17:18:22.990Z,2.08
2023-05-17T17:20:49.635Z,1.90
2023-05-17T17:23:16.412Z,1.55
2023-05-17T17:25:43.018Z,1.52
2023-05-17T17:28:09.609Z,1.75
2023-05-17T17:30:36.288Z,1.50
2023-05-17T17:33:03.030Z,1.90
2023-05-17T17:35:29.757Z,1.65
2023-05-17T17:37:56.459Z,1.75
2023-05-17T17:40:23.508Z,1.40
2023-05-17T17:42:50.158Z,1.80
2023-05-17T17:45:16.771Z,2.35
2023-05-17T17:47:43.674Z,1.52
2023-05-17T17:50:10.737Z,1.65
2023-05-17T17:52:37.590Z,1.70
2023-05-17T17:55:05.014Z,2.70
2023-05-17T17:57:33.506Z,1.80
2023-05-17T18:02:26.687Z,1.52
2023-05-17T18:04:53.394Z,1.92
2023-05-17T18:07:20.039Z,2.10
2023-05-17T18:09:46.689Z,1.60
2023-05-17T18:12:13.344Z,1.50
2023-05-17T18:14:40.205Z,1.45
2023-05-17T18:17:08.177Z,1.70
2023-05-17T18:19:34.919Z,1.90
2023-05-17T18:22:01.962Z,1.92
2023-05-17T18:24:28.571Z,1.83
2023-05-17T18:26:55.149Z,1.80
2023-05-17T18:29:21.730Z,1.50
2023-05-17T18:31:48.424Z,1.33
2023-05-17T18:34:15.192Z,1.75
2023-05-17T18:36:42.454Z,1.45
2023-05-17T18:39:09.527Z,1.83
2023-05-17T18:41:36.145Z,1.80
2023-05-17T18:44:02.873Z,1.50
2023-05-17T18:46:29.802Z,2.08
2023-05-17T18:48:56.491Z,2.00
2023-05-17T18:51:23.109Z,2.22
2023-05-17T18:53:49.701Z,1.42
2023-05-17T18:56:21.119Z,1.70
2023-05-17T18:58:47.748Z,1.88
2023-05-17T19:01:14.342Z,2.10
2023-05-17T19:03:41.139Z,1.92
2023-05-17T19:06:07.758Z,2.40
2023-05-17T19:08:34.377Z,1.77
2023-05-17T19:11:05.624Z,1.65
2023-05-17T19:13:32.947Z,1.67
2023-05-17T19:16:01.059Z,1.90
2023-05-17T19:18:27.856Z,1.98
2023-05-17T19:20:54.505Z,1.50
2023-05-17T19:23:21.516Z,1.30
2023-05-17T19:25:48.580Z,1.63
2023-05-17T19:28:15.230Z,2.28
2023-05-17T19:30:41.849Z,1.60
2023-05-17T19:33:08.490Z,1.88
2023-05-17T19:35:37.066Z,1.58
2023-05-17T19:40:30.272Z,1.45
2023-05-17T19:42:57.236Z,1.52
2023-05-17T19:45:23.958Z,1.42
2023-05-17T19:47:50.630Z,1.52
2023-05-17T19:50:17.377Z,1.75
2023-05-17T19:52:43.985Z,1.98
2023-05-17T19:55:10.768Z,1.55
2023-05-17T19:57:37.382Z,1.33
2023-05-17T20:00:05.281Z,1.80
2023-05-17T20:02:31.997Z,1.98
2023-05-17T20:05:02.173Z,1.65
2023-05-17T20:07:28.922Z,1.77
2023-05-17T20:09:55.548Z,1.70
2023-05-17T20:12:24.164Z,1.35
2023-05-17T20:14:50.785Z,1.65
2023-05-17T20:17:17.413Z,1.58
2023-05-17T20:19:43.993Z,1.38
2023-05-17T20:22:10.686Z,1.40
2023-05-17T20:24:37.541Z,1.30
2023-05-17T20:27:04.399Z,1.40
2023-05-17T20:29:31.051Z,1.98
2023-05-17T20:31:58.258Z,1.80
2023-05-17T20:34:28.365Z,1.90
2023-05-17T20:36:56.273Z,1.95
2023-05-17T20:39:23.614Z,1.52
2023-05-17T20:41:50.219Z,1.70
2023-05-17T20:44:18.827Z,1.55
2023-05-17T20:46:46.204Z,1.75
2023-05-17T20:49:12.774Z,2.00
2023-05-17T20:51:39.436Z,1.65
2023-05-17T20:54:06.398Z,1.50
2023-05-17T20:56:35.007Z,1.77
2023-05-17T20:59:01.706Z,1.90
2023-05-17T21:01:28.350Z,1.40
2023-05-17T21:03:55.058Z,1.83
2023-05-17T21:06:22.291Z,1.90
2023-05-17T21:08:48.944Z,2.40
2023-05-17T21:11:20.960Z,1.75
2023-05-17T21:13:48.520Z,2.05
2023-05-17T21:16:15.306Z,2.10
2023-05-17T21:18:42.088Z,1.92
2023-05-17T21:21:08.735Z,1.80
2023-05-17T21:23:35.373Z,1.63
2023-05-17T21:26:01.975Z,1.35
2023-05-17T21:28:30.016Z,1.55
2023-05-17T21:30:56.635Z,1.80
2023-05-17T21:33:23.346Z,1.50
2023-05-17T21:35:49.932Z,1.55
2023-05-17T21:38:16.576Z,1.33
2023-05-17T21:40:43.173Z,1.70
2023-05-17T21:43:12.671Z,1.88
2023-05-17T21:45:41.199Z,1.92
2023-05-17T21:50:34.892Z,1.52
2023-05-17T21:53:01.577Z,1.77
2023-05-17T21:55:32.409Z,1.50
2023-05-17T21:58:07.713Z,1.38
2023-05-17T22:00:34.370Z,1.52
2023-05-17T22:03:01.117Z,1.92
2023-05-17T22:05:27.825Z,1.80
2023-05-17T22:07:54.412Z,1.50
2023-05-17T22:10:21.146Z,1.75
2023-05-17T22:12:50.250Z,1.70
2023-05-17T22:15:17.238Z,1.70
2023-05-17T22:17:51.523Z,1.33
2023-05-17T22:20:22.841Z,1.63
2023-05-17T22:22:49.784Z,1.40
2023-05-17T22:25:17.751Z,1.30
2023-05-17T22:27:45.398Z,1.65
2023-05-17T22:30:12.345Z,1.47
2023-05-17T22:32:40.311Z,1.45
2023-05-17T22:35:07.428Z,2.05
2023-05-17T22:37:34.124Z,1.90
2023-05-17T22:40:01.033Z,2.75
2023-05-17T22:42:27.619Z,1.70
2023-05-17T22:44:54.313Z,1.77
2023-05-17T22:47:22.895Z,1.80
2023-05-17T22:49:52.587Z,1.90
2023-05-17T22:52:19.869Z,1.60
2023-05-17T22:54:46.490Z,1.80
2023-05-17T22:57:13.094Z,1.60
2023-05-17T22:59:40.011Z,1.95
2023-05-17T23:02:06.799Z,1.70
2023-05-17T23:04:33.491Z,1.42
2023-05-17T23:07:02.292Z,1.60
2023-05-17T23:09:33.813Z,1.60
2023-05-17T23:12:05.579Z,1.70
2023-05-17T23:14:36.432Z,1.60
2023-05-17T23:17:04.170Z,1.70
2023-05-17T23:19:31.944Z,1.80
2023-05-17T23:22:02.927Z,1.52
2023-05-17T23:24:29.578Z,1.63
2023-05-17T23:26:56.404Z,1.52
2023-05-17T23:29:23.889Z,2.00
2023-05-17T23:31:50.757Z,2.15
2023-05-17T23:34:17.526Z,1.67
2023-05-17T23:36:44.097Z,2.25
2023-05-17T23:39:10.863Z,2.03
2023-05-17T23:41:40.352Z,1.70
2023-05-17T23:44:07.978Z,1.88
2023-05-17T23:46:34.716Z,2.47
2023-05-17T23:49:02.382Z,2.33
2023-05-17T23:51:29.237Z,2.17
2023-05-17T23:53:56.213Z,1.40
2023-05-17T23:56:23.247Z,2.13
2023-05-17T23:58:49.974Z,1.70
